createdAt,value
2017-04-29T00:00:42.223Z,7.03
2017-04-29T00:01:53.304Z,6.95
2017-04-29T00:03:04.342Z,6.91
2017-04-29T00:04:15.570Z,6.94
2017-04-29T00:05:26.609Z,6.91
2017-04-29T00:06:37.642Z,6.91
2017-04-29T00:07:48.876Z,6.95
2017-04-29T00:09:00.118Z,6.82
2017-04-29T00:10:11.148Z,6.85
2017-04-29T00:11:22.170Z,6.83
2017-04-29T00:12:33.444Z,6.94
2017-04-29T00:13:44.468Z,6.79
2017-04-29T00:14:55.508Z,6.72
2017-04-29T00:16:06.533Z,6.82
2017-04-29T00:17:17.761Z,6.82
2017-04-29T00:18:28.788Z,6.73
2017-04-29T00:19:40.021Z,6.72
2017-04-29T00:20:51.258Z,6.68
2017-04-29T00:22:02.326Z,6.72
2017-04-29T00:23:13.357Z,6.75
2017-04-29T00:24:24.644Z,6.67
2017-04-29T00:25:35.674Z,6.6
2017-04-29T00:26:46.709Z,6.65
2017-04-29T00:27:58.142Z,6.54
2017-04-29T00:29:09.384Z,6.6
2017-04-29T00:30:20.434Z,6.57
2017-04-29T00:31:31.468Z,6.57
2017-04-29T00:32:42.497Z,6.54
2017-04-29T00:33:53.580Z,6.52
2017-04-29T00:35:04.808Z,6.4
2017-04-29T00:36:15.840Z,6.52
2017-04-29T00:37:26.863Z,6.36
2017-04-29T00:38:37.931Z,6.39
2017-04-29T00:39:48.963Z,6.39
2017-04-29T00:41:00.197Z,6.33
2017-04-29T00:42:11.263Z,6.34
2017-04-29T00:43:22.297Z,6.33
2017-04-29T00:44:33.384Z,6.37
2017-04-29T00:45:44.617Z,6.36
2017-04-29T00:46:55.653Z,6.31
2017-04-29T00:48:06.702Z,6.21
2017-04-29T00:49:17.946Z,6.25
2017-04-29T00:50:28.994Z,6.21
2017-04-29T00:51:40.020Z,6.21
2017-04-29T00:52:51.052Z,6.21
2017-04-29T00:54:02.086Z,6.24
2017-04-29T00:55:13.163Z,6.31
2017-04-29T00:56:24.406Z,6.24
2017-04-29T00:57:35.433Z,6.25
2017-04-29T00:58:46.680Z,6.2
2017-04-29T00:59:57.715Z,6.14
2017-04-29T01:01:08.737Z,6.14
2017-04-29T01:02:19.977Z,6.17
2017-04-29T01:03:31.221Z,6.13
2017-04-29T01:04:42.266Z,6.18
2017-04-29T01:05:53.296Z,6.15
2017-04-29T01:07:04.383Z,6.09
2017-04-29T01:08:15.403Z,6.25
2017-04-29T01:09:26.487Z,6.26
2017-04-29T01:10:37.528Z,6.1
2017-04-29T01:11:48.568Z,6.21
2017-04-29T01:12:59.615Z,6.17
2017-04-29T01:14:10.656Z,6.13
2017-04-29T01:15:21.687Z,6.13
2017-04-29T01:16:32.773Z,6.15
2017-04-29T01:17:43.808Z,6.05
2017-04-29T01:18:55.036Z,6.03
2017-04-29T01:20:06.066Z,6.15
2017-04-29T01:21:17.094Z,6.15
2017-04-29T01:22:28.316Z,6.09
2017-04-29T01:23:39.348Z,6.2
2017-04-29T01:24:50.386Z,6.14
2017-04-29T01:26:01.620Z,6.14
2017-04-29T01:27:12.711Z,6.07
2017-04-29T01:28:23.755Z,6.15
2017-04-29T01:29:34.784Z,6.2
2017-04-29T01:30:45.818Z,6.1
2017-04-29T01:31:56.854Z,6.18
2017-04-29T01:33:07.878Z,6.18
2017-04-29T01:34:18.957Z,6.2
2017-04-29T01:35:29.994Z,6.1
2017-04-29T01:36:41.231Z,6.17
2017-04-29T01:37:52.283Z,6.21
2017-04-29T01:39:03.308Z,6.24
2017-04-29T01:40:14.345Z,6.21
2017-04-29T01:41:25.380Z,6.24
2017-04-29T01:42:36.401Z,6.18
2017-04-29T01:43:47.640Z,6.2
2017-04-29T01:44:58.674Z,6.2
2017-04-29T01:46:09.716Z,6.15
2017-04-29T01:47:20.756Z,6.25
2017-04-29T01:48:31.843Z,6.25
2017-04-29T01:49:42.871Z,6.2
2017-04-29T01:50:53.890Z,6.21
2017-04-29T01:52:04.919Z,6.21
2017-04-29T01:53:16.154Z,6.17
2017-04-29T01:54:27.202Z,6.29
2017-04-29T01:55:38.255Z,6.29
2017-04-29T01:56:49.502Z,6.34
2017-04-29T01:58:00.542Z,6.33
2017-04-29T01:59:11.624Z,6.26
2017-04-29T02:00:22.643Z,6.24
2017-04-29T02:01:33.665Z,6.26
2017-04-29T02:02:44.900Z,6.24
2017-04-29T02:03:55.930Z,6.17
2017-04-29T02:05:06.963Z,6.21
2017-04-29T02:06:17.994Z,6.1
2017-04-29T02:07:29.029Z,6.26
2017-04-29T02:08:40.079Z,6.15
2017-04-29T02:09:51.164Z,6.25
2017-04-29T02:11:02.197Z,6.14
2017-04-29T02:12:13.434Z,6.25
2017-04-29T02:13:24.470Z,6.13
2017-04-29T02:14:35.516Z,6.18
2017-04-29T02:15:46.543Z,6.1
2017-04-29T02:16:57.579Z,6.14
2017-04-29T02:18:08.611Z,6.1
2017-04-29T02:19:19.645Z,6.07
2017-04-29T02:20:30.719Z,6.09
2017-04-29T02:21:41.747Z,6.25
2017-04-29T02:22:52.784Z,6.2
2017-04-29T02:24:04.011Z,6.17
2017-04-29T02:25:15.047Z,6.18
2017-04-29T02:26:26.286Z,6.13
2017-04-29T02:27:37.353Z,6.15
2017-04-29T02:28:48.587Z,6.18
2017-04-29T02:29:59.622Z,6.14
2017-04-29T02:31:10.657Z,6.17
2017-04-29T02:32:21.740Z,6.17
2017-04-29T02:33:32.769Z,6.15
2017-04-29T02:34:44.003Z,6.17
2017-04-29T02:35:55.032Z,6.2
2017-04-29T02:37:06.062Z,6.17
2017-04-29T02:38:17.087Z,6.13
2017-04-29T02:39:28.124Z,6.13
2017-04-29T02:40:39.160Z,6.14
2017-04-29T02:41:50.254Z,6.28
2017-04-29T02:43:01.293Z,6.2
2017-04-29T02:44:12.325Z,6.24
2017-04-29T02:45:23.353Z,6.18
2017-04-29T02:46:34.382Z,6.2
2017-04-29T02:47:45.428Z,6.15
2017-04-29T02:48:56.460Z,6.14
2017-04-29T02:50:07.490Z,6.15
2017-04-29T02:51:18.521Z,6.13
2017-04-29T02:52:29.605Z,6.14
2017-04-29T02:53:40.634Z,6.15
2017-04-29T02:54:51.670Z,6.18
2017-04-29T02:56:02.709Z,6.13
2017-04-29T02:57:13.751Z,6.1
2017-04-29T02:58:24.789Z,6.14
2017-04-29T02:59:35.823Z,6.09
2017-04-29T03:00:46.850Z,6.06
2017-04-29T03:01:58.079Z,6.03
2017-04-29T03:03:09.162Z,6.03
2017-04-29T03:04:20.200Z,6.05
2017-04-29T03:05:31.236Z,6.03
2017-04-29T03:06:42.271Z,6.02
2017-04-29T03:07:53.310Z,6.05
2017-04-29T03:09:04.350Z,6.03
2017-04-29T03:10:15.379Z,6.02
2017-04-29T03:11:26.617Z,5.98
2017-04-29T03:12:37.682Z,6.03
2017-04-29T03:13:48.713Z,6.03
2017-04-29T03:14:59.802Z,6.02
2017-04-29T03:16:11.040Z,5.96
2017-04-29T03:17:22.060Z,5.96
2017-04-29T03:18:33.098Z,5.99
2017-04-29T03:19:44.545Z,6.05
2017-04-29T03:20:55.779Z,5.95
2017-04-29T03:22:06.997Z,6.02
2017-04-29T03:23:18.040Z,5.98
2017-04-29T03:24:29.125Z,6
2017-04-29T03:25:40.168Z,5.92
2017-04-29T03:26:51.201Z,5.98
2017-04-29T03:28:02.642Z,5.99
2017-04-29T03:29:13.677Z,5.84
2017-04-29T03:30:24.906Z,5.87
2017-04-29T03:31:35.940Z,5.85
2017-04-29T03:32:46.974Z,5.77
2017-04-29T03:33:58.205Z,5.81
2017-04-29T03:35:09.489Z,5.87
2017-04-29T03:36:20.711Z,5.81
2017-04-29T03:37:31.738Z,5.85
2017-04-29T03:38:42.974Z,5.87
2017-04-29T03:39:54.011Z,5.77
2017-04-29T03:41:05.450Z,5.78
2017-04-29T03:42:16.484Z,5.69
2017-04-29T03:43:27.519Z,5.66
2017-04-29T03:44:38.553Z,5.64
2017-04-29T03:45:49.627Z,5.7
2017-04-29T03:47:00.654Z,5.7
2017-04-29T03:48:11.698Z,5.64
2017-04-29T03:49:22.737Z,5.62
2017-04-29T03:50:33.769Z,5.6
2017-04-29T03:51:45.000Z,5.51
2017-04-29T03:52:56.030Z,5.55
2017-04-29T03:54:07.067Z,5.48
2017-04-29T03:55:18.104Z,5.52
2017-04-29T03:56:29.128Z,5.51
2017-04-29T03:57:40.412Z,5.49
2017-04-29T03:58:51.443Z,5.48
2017-04-29T04:00:02.476Z,5.46
2017-04-29T04:01:13.495Z,5.39
2017-04-29T04:02:24.552Z,5.48
2017-04-29T04:03:35.791Z,5.41
2017-04-29T04:04:46.827Z,5.42
2017-04-29T04:05:58.058Z,5.51
2017-04-29T04:07:09.121Z,5.39
2017-04-29T04:08:20.145Z,5.39
2017-04-29T04:09:31.163Z,5.41
2017-04-29T04:10:42.188Z,5.39
2017-04-29T04:11:53.230Z,5.42
2017-04-29T04:13:04.271Z,5.42
2017-04-29T04:14:15.308Z,5.3
2017-04-29T04:15:26.347Z,5.31
2017-04-29T04:16:37.382Z,5.3
2017-04-29T04:17:48.453Z,5.34
2017-04-29T04:18:59.490Z,5.37
2017-04-29T04:20:10.525Z,5.42
2017-04-29T04:21:21.552Z,5.48
2017-04-29T04:22:32.599Z,5.46
2017-04-29T04:23:43.817Z,5.48
2017-04-29T04:24:54.856Z,5.52
2017-04-29T04:26:05.887Z,5.49
2017-04-29T04:27:17.108Z,5.41
2017-04-29T04:28:28.187Z,5.46
2017-04-29T04:29:39.225Z,5.44
2017-04-29T04:30:50.253Z,5.44
2017-04-29T04:32:01.288Z,5.54
2017-04-29T04:33:12.514Z,5.49
2017-04-29T04:34:23.546Z,5.59
2017-04-29T04:35:34.574Z,5.59
2017-04-29T04:36:45.604Z,5.6
2017-04-29T04:37:56.635Z,5.52
2017-04-29T04:39:07.663Z,5.67
2017-04-29T04:40:18.880Z,5.66
2017-04-29T04:41:29.910Z,5.63
2017-04-29T04:42:40.964Z,5.67
2017-04-29T04:43:52.005Z,5.67
2017-04-29T04:45:03.088Z,5.69
2017-04-29T04:46:14.106Z,5.72
2017-04-29T04:47:25.334Z,5.67
2017-04-29T04:48:36.374Z,5.78
2017-04-29T04:49:47.409Z,5.78
2017-04-29T04:50:58.432Z,5.87
2017-04-29T04:52:09.660Z,5.75
2017-04-29T04:53:20.689Z,5.75
2017-04-29T04:54:31.724Z,5.8
2017-04-29T04:55:42.803Z,5.73
2017-04-29T04:56:53.829Z,5.77
2017-04-29T04:58:05.262Z,5.73
2017-04-29T04:59:16.300Z,5.78
2017-04-29T05:00:27.331Z,5.78
2017-04-29T05:01:38.563Z,5.78
2017-04-29T05:02:49.596Z,5.82
2017-04-29T05:04:00.622Z,5.87
2017-04-29T05:05:11.651Z,5.84
2017-04-29T05:06:22.728Z,5.95
2017-04-29T05:07:34.162Z,5.92
2017-04-29T05:08:45.188Z,5.89
2017-04-29T05:09:56.215Z,5.98
2017-04-29T05:11:07.247Z,5.98
2017-04-29T05:12:18.543Z,5.98
2017-04-29T05:13:29.584Z,6.05
2017-04-29T05:14:40.818Z,5.98
2017-04-29T05:15:51.864Z,6.09
2017-04-29T05:17:02.959Z,6.14
2017-04-29T05:18:14.012Z,6.18
2017-04-29T05:19:25.250Z,6.09
2017-04-29T05:20:36.487Z,6.1
2017-04-29T05:21:47.712Z,6.2
2017-04-29T05:22:58.730Z,6.24
2017-04-29T05:24:09.817Z,6.25
2017-04-29T05:25:20.847Z,6.34
2017-04-29T05:26:32.071Z,6.34
2017-04-29T05:27:43.510Z,6.36
2017-04-29T05:28:54.549Z,6.37
2017-04-29T05:30:05.580Z,6.43
2017-04-29T05:31:16.612Z,6.4
2017-04-29T05:32:27.641Z,6.51
2017-04-29T05:33:38.727Z,6.55
2017-04-29T05:34:49.766Z,6.55
2017-04-29T05:36:00.795Z,6.58
2017-04-29T05:37:11.818Z,6.68
2017-04-29T05:38:22.850Z,6.64
2017-04-29T05:39:33.873Z,6.62
2017-04-29T05:40:44.893Z,6.76
2017-04-29T05:41:55.925Z,6.72
2017-04-29T05:43:06.966Z,6.75
2017-04-29T05:44:18.058Z,6.68
2017-04-29T05:45:29.086Z,6.85
2017-04-29T05:46:40.121Z,6.85
2017-04-29T05:47:51.158Z,6.78
2017-04-29T05:49:02.203Z,6.88
2017-04-29T05:50:13.227Z,6.82
2017-04-29T05:51:24.258Z,6.9
2017-04-29T05:52:35.287Z,6.94
2017-04-29T05:53:46.524Z,6.95
2017-04-29T05:54:57.606Z,7.05
2017-04-29T05:56:08.632Z,7.05
2017-04-29T05:57:19.864Z,7.08
2017-04-29T05:58:30.901Z,7.12
2017-04-29T05:59:41.940Z,7.04
2017-04-29T06:00:52.974Z,7.11
2017-04-29T06:02:03.996Z,7.09
2017-04-29T06:03:15.029Z,7.16
2017-04-29T06:04:26.072Z,7.08
2017-04-29T06:05:37.109Z,7.18
2017-04-29T06:06:48.193Z,7.16
2017-04-29T06:07:59.225Z,7.23
2017-04-29T06:09:10.264Z,7.23
2017-04-29T06:10:21.495Z,7.23
2017-04-29T06:11:32.708Z,7.26
2017-04-29T06:12:43.748Z,7.23
2017-04-29T06:13:54.790Z,7.22
2017-04-29T06:15:05.816Z,7.22
2017-04-29T06:16:16.891Z,7.34
2017-04-29T06:17:27.917Z,7.31
2017-04-29T06:18:38.952Z,7.45
2017-04-29T06:19:49.999Z,7.56
2017-04-29T06:21:01.244Z,7.58
2017-04-29T06:22:12.288Z,7.7
2017-04-29T06:23:23.533Z,7.71
2017-04-29T06:24:34.763Z,7.8
2017-04-29T06:25:45.795Z,7.92
2017-04-29T06:26:56.877Z,7.98
2017-04-29T06:28:07.921Z,8.14
2017-04-29T06:29:19.161Z,8.25
2017-04-29T06:30:30.202Z,8.25
2017-04-29T06:31:41.242Z,8.34
2017-04-29T06:32:52.278Z,8.42
2017-04-29T06:34:03.323Z,8.4
2017-04-29T06:35:14.363Z,8.43
2017-04-29T06:36:25.394Z,8.54
2017-04-29T06:37:36.481Z,8.57
2017-04-29T06:38:47.719Z,8.58
2017-04-29T06:39:58.774Z,8.53
2017-04-29T06:41:09.804Z,8.42
2017-04-29T06:42:20.844Z,8.43
2017-04-29T06:43:32.078Z,8.49
2017-04-29T06:44:43.315Z,8.54
2017-04-29T06:45:54.553Z,8.42
2017-04-29T06:47:05.579Z,8.52
2017-04-29T06:48:16.623Z,8.47
2017-04-29T06:49:27.717Z,8.52
2017-04-29T06:50:38.749Z,8.64
2017-04-29T06:51:49.788Z,8.64
2017-04-29T06:53:01.227Z,8.62
2017-04-29T06:54:12.464Z,8.67
2017-04-29T06:55:23.503Z,8.71
2017-04-29T06:56:34.536Z,8.72
2017-04-29T06:57:45.973Z,8.76
2017-04-29T06:58:57.055Z,8.67
2017-04-29T07:00:08.081Z,8.65
2017-04-29T07:01:19.120Z,8.67
2017-04-29T07:02:30.170Z,8.65
2017-04-29T07:03:41.212Z,8.68
2017-04-29T07:04:52.251Z,8.71
2017-04-29T07:06:03.301Z,8.77
2017-04-29T07:07:14.345Z,8.92
2017-04-29T07:08:25.360Z,9.04
2017-04-29T07:09:36.473Z,9.14
2017-04-29T07:10:47.700Z,9.19
2017-04-29T07:11:58.729Z,9.17
2017-04-29T07:13:09.786Z,9.24
2017-04-29T07:14:20.833Z,9.19
2017-04-29T07:15:31.869Z,9.24
2017-04-29T07:16:42.910Z,9.27
2017-04-29T07:17:53.940Z,9.29
2017-04-29T07:19:04.991Z,9.27
2017-04-29T07:20:16.029Z,9.39
2017-04-29T07:21:27.088Z,9.45
2017-04-29T07:22:38.316Z,9.55
2017-04-29T07:23:49.360Z,9.72
2017-04-29T07:25:00.594Z,10.35
2017-04-29T07:26:11.619Z,10.69
2017-04-29T07:27:22.660Z,10.8
2017-04-29T07:28:33.694Z,10.84
2017-04-29T07:29:44.931Z,10.94
2017-04-29T07:30:55.964Z,11.09
2017-04-29T07:32:07.058Z,11.15
2017-04-29T07:33:18.102Z,11.38
2017-04-29T07:34:29.137Z,11.59
2017-04-29T07:35:40.170Z,11.61
2017-04-29T07:36:51.201Z,11.89
2017-04-29T07:38:02.250Z,11.97
2017-04-29T07:39:13.284Z,11.98
2017-04-29T07:40:24.331Z,12.04
2017-04-29T07:41:35.617Z,12.01
2017-04-29T07:42:46.654Z,11.95
2017-04-29T07:43:57.714Z,11.91
2017-04-29T07:45:08.761Z,11.97
2017-04-29T07:46:19.808Z,11.76
2017-04-29T07:47:30.849Z,11.7
2017-04-29T07:48:41.894Z,11.57
2017-04-29T07:49:52.932Z,11.49
2017-04-29T07:51:04.170Z,11.59
2017-04-29T07:52:15.252Z,11.41
2017-04-29T07:53:26.290Z,11.46
2017-04-29T07:54:37.528Z,11.31
2017-04-29T07:55:48.568Z,11.3
2017-04-29T07:56:59.611Z,11.52
2017-04-29T07:58:10.651Z,12.04
2017-04-29T07:59:21.678Z,12.51
2017-04-29T08:00:32.927Z,12.58
2017-04-29T08:01:43.963Z,12.59
2017-04-29T08:02:55.017Z,13.07
2017-04-29T08:04:06.256Z,13.44
2017-04-29T08:05:17.322Z,13.62
2017-04-29T08:06:28.574Z,13.55
2017-04-29T08:07:39.619Z,13.75
2017-04-29T08:08:50.871Z,13.88
2017-04-29T08:10:01.927Z,13.84
2017-04-29T08:11:12.966Z,13.83
2017-04-29T08:12:24.198Z,14.09
2017-04-29T08:13:35.311Z,14.16
2017-04-29T08:14:46.353Z,14.09
2017-04-29T08:15:57.388Z,14.01
2017-04-29T08:17:08.436Z,13.76
2017-04-29T08:18:19.469Z,13.58
2017-04-29T08:19:30.519Z,13.42
2017-04-29T08:20:41.556Z,13.31
2017-04-29T08:21:52.801Z,13.19
2017-04-29T08:23:03.842Z,12.91
2017-04-29T08:24:14.930Z,12.73
2017-04-29T08:25:26.182Z,12.53
2017-04-29T08:26:37.212Z,12.43
2017-04-29T08:27:48.453Z,12.37
2017-04-29T08:28:59.745Z,12.22
2017-04-29T08:30:10.789Z,12.11
2017-04-29T08:31:21.838Z,12.04
2017-04-29T08:32:32.874Z,12.03
2017-04-29T08:33:43.915Z,12.04
2017-04-29T08:34:55.016Z,12.13
2017-04-29T08:36:06.053Z,12.11
2017-04-29T08:37:17.094Z,12.2
2017-04-29T08:38:28.139Z,12.2
2017-04-29T08:39:39.587Z,12.11
2017-04-29T08:40:50.675Z,12.16
2017-04-29T08:42:01.717Z,12.01
2017-04-29T08:43:12.755Z,11.97
2017-04-29T08:44:23.788Z,11.94
2017-04-29T08:45:34.814Z,11.82
2017-04-29T08:46:45.845Z,11.6
2017-04-29T08:47:56.879Z,11.67
2017-04-29T08:49:08.116Z,11.6
2017-04-29T08:50:19.159Z,11.43
2017-04-29T08:51:30.194Z,11.34
2017-04-29T08:52:41.294Z,11.27
2017-04-29T08:53:52.529Z,11.24
2017-04-29T08:55:03.569Z,11.2
2017-04-29T08:56:14.602Z,11.16
2017-04-29T08:57:25.643Z,11.15
2017-04-29T08:58:36.676Z,11.1
2017-04-29T08:59:47.711Z,11.1
2017-04-29T09:00:58.738Z,11.09
2017-04-29T09:02:10.027Z,11.21
2017-04-29T09:03:21.052Z,11.26
2017-04-29T09:04:32.092Z,11.33
2017-04-29T09:05:43.140Z,11.39
2017-04-29T09:06:54.374Z,11.42
2017-04-29T09:08:05.407Z,11.45
2017-04-29T09:09:16.447Z,11.45
2017-04-29T09:10:27.482Z,11.41
2017-04-29T09:11:38.515Z,11.46
2017-04-29T09:12:49.612Z,11.57
2017-04-29T09:14:00.659Z,11.78
2017-04-29T09:15:11.701Z,12.07
2017-04-29T09:16:22.737Z,12.4
2017-04-29T09:17:33.757Z,12.56
2017-04-29T09:18:44.807Z,12.71
2017-04-29T09:19:55.859Z,12.69
2017-04-29T09:21:06.901Z,12.61
2017-04-29T09:22:18.150Z,12.56
2017-04-29T09:23:29.239Z,12.76
2017-04-29T09:24:40.278Z,12.74
2017-04-29T09:25:51.316Z,12.94
2017-04-29T09:27:02.759Z,12.91
2017-04-29T09:28:13.998Z,12.92
2017-04-29T09:29:25.242Z,12.94
2017-04-29T09:30:36.279Z,12.94
2017-04-29T09:31:47.513Z,12.96
2017-04-29T09:32:58.577Z,12.91
2017-04-29T09:34:09.627Z,12.91
2017-04-29T09:35:20.719Z,12.92
2017-04-29T09:36:31.758Z,13.19
2017-04-29T09:37:42.796Z,13.37
2017-04-29T09:38:53.830Z,13.68
2017-04-29T09:40:04.872Z,14.06
2017-04-29T09:41:16.153Z,14.48
2017-04-29T09:42:27.202Z,14.93
2017-04-29T09:43:38.459Z,14.82
2017-04-29T09:44:49.562Z,14.89
2017-04-29T09:46:00.607Z,15.01
2017-04-29T09:47:11.649Z,15.23
2017-04-29T09:48:22.705Z,15.34
2017-04-29T09:49:33.758Z,15.26
2017-04-29T09:50:44.799Z,15.33
2017-04-29T09:51:55.848Z,15.63
2017-04-29T09:53:07.095Z,15.95
2017-04-29T09:54:18.150Z,16.13
2017-04-29T09:55:29.257Z,15.93
2017-04-29T09:56:40.303Z,16.1
2017-04-29T09:57:51.577Z,16.32
2017-04-29T09:59:02.615Z,16.51
2017-04-29T10:00:13.668Z,16.73
2017-04-29T10:01:24.706Z,16.87
2017-04-29T10:02:35.952Z,16.95
2017-04-29T10:03:47.011Z,17.24
2017-04-29T10:04:58.076Z,17.47
2017-04-29T10:06:09.184Z,17.63
2017-04-29T10:07:20.449Z,17.3
2017-04-29T10:08:31.504Z,17.02
2017-04-29T10:09:42.951Z,17.1
2017-04-29T10:10:54.201Z,17.24
2017-04-29T10:12:05.251Z,16.8
2017-04-29T10:13:16.312Z,16.52
2017-04-29T10:14:27.365Z,16.18
2017-04-29T10:15:38.419Z,15.91
2017-04-29T10:16:49.473Z,15.86
2017-04-29T10:18:00.572Z,15.47
2017-04-29T10:19:11.620Z,15.33
2017-04-29T10:20:23.071Z,15.18
2017-04-29T10:21:34.121Z,15.13
2017-04-29T10:22:45.163Z,14.89
2017-04-29T10:23:56.599Z,14.71
2017-04-29T10:25:07.830Z,14.69
2017-04-29T10:26:18.896Z,14.52
2017-04-29T10:27:29.982Z,14.45
2017-04-29T10:28:41.230Z,14.21
2017-04-29T10:29:52.278Z,14.01
2017-04-29T10:31:03.321Z,13.81
2017-04-29T10:32:14.362Z,13.73
2017-04-29T10:33:25.402Z,13.7
2017-04-29T10:34:36.454Z,13.65
2017-04-29T10:35:47.501Z,13.75
2017-04-29T10:36:58.545Z,13.63
2017-04-29T10:38:09.844Z,13.73
2017-04-29T10:39:20.881Z,13.83
2017-04-29T10:40:31.918Z,14.02
2017-04-29T10:41:43.159Z,14.31
2017-04-29T10:42:54.194Z,14.94
2017-04-29T10:44:05.277Z,15.12
2017-04-29T10:45:16.524Z,15.16
2017-04-29T10:46:27.570Z,15.13
2017-04-29T10:47:38.609Z,14.89
2017-04-29T10:48:49.662Z,14.61
2017-04-29T10:50:00.699Z,14.36
2017-04-29T10:51:11.734Z,14.06
2017-04-29T10:52:22.977Z,13.9
2017-04-29T10:53:34.044Z,14.21
2017-04-29T10:54:45.096Z,14.51
2017-04-29T10:55:56.184Z,14.97
2017-04-29T10:57:07.236Z,15.51
2017-04-29T10:58:18.285Z,15.95
2017-04-29T10:59:29.341Z,16.4
2017-04-29T11:00:40.382Z,16.82
2017-04-29T11:01:51.461Z,16.99
2017-04-29T11:03:02.717Z,17.13
2017-04-29T11:04:13.779Z,17.13
2017-04-29T11:05:24.864Z,17.1
2017-04-29T11:06:36.116Z,16.97
2017-04-29T11:07:47.175Z,16.87
2017-04-29T11:08:58.226Z,16.7
2017-04-29T11:10:09.282Z,16.67
2017-04-29T11:11:20.336Z,16.49
2017-04-29T11:12:31.385Z,16.4
2017-04-29T11:13:42.632Z,16.16
2017-04-29T11:14:53.681Z,15.91
2017-04-29T11:16:04.789Z,15.62
2017-04-29T11:17:15.822Z,15.43
2017-04-29T11:18:27.065Z,15.31
2017-04-29T11:19:38.314Z,15.23
2017-04-29T11:20:49.565Z,15.16
2017-04-29T11:22:00.611Z,15.05
2017-04-29T11:23:11.677Z,14.71
2017-04-29T11:24:22.714Z,14.63
2017-04-29T11:25:33.954Z,14.59
2017-04-29T11:26:45.048Z,14.61
2017-04-29T11:27:56.092Z,14.66
2017-04-29T11:29:07.136Z,15.15
2017-04-29T11:30:18.176Z,15.3
2017-04-29T11:31:29.205Z,15.44
2017-04-29T11:32:40.262Z,15.41
2017-04-29T11:33:51.297Z,15.43
2017-04-29T11:35:02.347Z,15.33
2017-04-29T11:36:13.387Z,15.31
2017-04-29T11:37:24.434Z,15.23
2017-04-29T11:38:35.524Z,15.18
2017-04-29T11:39:46.562Z,15.23
2017-04-29T11:40:57.607Z,15.37
2017-04-29T11:42:08.653Z,15.31
2017-04-29T11:43:19.898Z,15.35
2017-04-29T11:44:30.939Z,15.37
2017-04-29T11:45:41.978Z,15.47
2017-04-29T11:46:53.018Z,15.3
2017-04-29T11:48:04.104Z,15.62
2017-04-29T11:49:15.149Z,16.08
2017-04-29T11:50:26.198Z,16.52
2017-04-29T11:51:37.440Z,16.77
2017-04-29T11:52:48.477Z,16.99
2017-04-29T11:53:59.520Z,16.95
2017-04-29T11:55:10.560Z,17.05
2017-04-29T11:56:21.599Z,16.94
2017-04-29T11:57:32.638Z,16.84
2017-04-29T11:58:43.731Z,16.66
2017-04-29T11:59:54.985Z,16.52
2017-04-29T12:01:06.224Z,16.44
2017-04-29T12:02:17.278Z,16.29
2017-04-29T12:03:28.321Z,16.11
2017-04-29T12:04:39.569Z,15.88
2017-04-29T12:05:50.609Z,15.75
2017-04-29T12:07:01.865Z,15.77
2017-04-29T12:08:12.917Z,15.52
2017-04-29T12:09:24.029Z,15.44
2017-04-29T12:10:35.281Z,15.22
2017-04-29T12:11:46.323Z,15.33
2017-04-29T12:12:57.370Z,15.3
2017-04-29T12:14:08.407Z,15.2
2017-04-29T12:15:19.442Z,15.27
2017-04-29T12:16:30.489Z,15.33
2017-04-29T12:17:41.530Z,15.45
2017-04-29T12:18:52.783Z,15.33
2017-04-29T12:20:03.883Z,15.51
2017-04-29T12:21:14.928Z,15.4
2017-04-29T12:22:25.982Z,15.55
2017-04-29T12:23:37.228Z,15.53
2017-04-29T12:24:48.454Z,15.88
2017-04-29T12:25:59.502Z,16.21
2017-04-29T12:27:10.741Z,16.7
2017-04-29T12:28:21.788Z,17.02
2017-04-29T12:29:32.837Z,17.43
2017-04-29T12:30:43.917Z,17.71
2017-04-29T12:31:54.958Z,18.01
2017-04-29T12:33:05.998Z,18.01
2017-04-29T12:34:17.047Z,18.13
2017-04-29T12:35:28.090Z,18.35
2017-04-29T12:36:39.142Z,18.44
2017-04-29T12:37:50.229Z,18.59
2017-04-29T12:39:01.275Z,18.54
2017-04-29T12:40:12.554Z,18.36
2017-04-29T12:41:24.102Z,18.26
2017-04-29T12:42:35.154Z,18.11
2017-04-29T12:43:46.205Z,17.98
2017-04-29T12:44:57.310Z,18.02
2017-04-29T12:46:08.359Z,18.01
2017-04-29T12:47:19.610Z,17.9
2017-04-29T12:48:30.671Z,17.76
2017-04-29T12:49:41.928Z,17.47
2017-04-29T12:50:52.989Z,17.31
2017-04-29T12:52:04.094Z,17.15
2017-04-29T12:53:15.133Z,17
2017-04-29T12:54:26.178Z,16.9
2017-04-29T12:55:37.231Z,16.69
2017-04-29T12:56:48.470Z,16.69
2017-04-29T12:57:59.524Z,16.65
2017-04-29T12:59:10.561Z,16.66
2017-04-29T13:00:22.014Z,16.67
2017-04-29T13:01:33.053Z,16.67
2017-04-29T13:02:44.095Z,16.55
2017-04-29T13:03:55.188Z,16.44
2017-04-29T13:05:06.240Z,16.51
2017-04-29T13:06:17.288Z,16.36
2017-04-29T13:07:28.337Z,16.29
2017-04-29T13:08:39.376Z,16.18
2017-04-29T13:09:50.408Z,16.17
2017-04-29T13:11:01.453Z,16.18
2017-04-29T13:12:12.498Z,16.14
2017-04-29T13:13:23.790Z,16.14
2017-04-29T13:14:35.028Z,16.11
2017-04-29T13:15:46.269Z,16.18
2017-04-29T13:16:57.307Z,16.33
2017-04-29T13:18:08.352Z,16.39
2017-04-29T13:19:19.407Z,16.26
2017-04-29T13:20:30.655Z,16.42
2017-04-29T13:21:41.707Z,16.4
2017-04-29T13:22:52.745Z,16.69
2017-04-29T13:24:03.842Z,16.59
2017-04-29T13:25:14.877Z,16.7
2017-04-29T13:26:25.911Z,16.84
2017-04-29T13:27:36.949Z,17.06
2017-04-29T13:28:48.001Z,17.12
2017-04-29T13:29:59.059Z,17
2017-04-29T13:31:10.303Z,16.99
2017-04-29T13:32:21.542Z,16.88
2017-04-29T13:33:32.576Z,16.87
2017-04-29T13:34:43.613Z,16.82
2017-04-29T13:35:54.658Z,16.74
2017-04-29T13:37:05.707Z,16.72
2017-04-29T13:38:16.957Z,16.73
2017-04-29T13:39:27.997Z,16.8
2017-04-29T13:40:39.039Z,16.82
2017-04-29T13:41:50.484Z,16.87
2017-04-29T13:43:01.533Z,17.02
2017-04-29T13:44:12.583Z,17.13
2017-04-29T13:45:23.678Z,17.25
2017-04-29T13:46:34.909Z,17.42
2017-04-29T13:47:45.941Z,17.57
2017-04-29T13:48:56.989Z,17.55
2017-04-29T13:50:08.234Z,17.63
2017-04-29T13:51:19.274Z,17.58
2017-04-29T13:52:30.509Z,17.63
2017-04-29T13:53:41.549Z,17.52
2017-04-29T13:54:52.592Z,17.52
2017-04-29T13:56:03.692Z,17.35
2017-04-29T13:57:14.917Z,17.36
2017-04-29T13:58:25.973Z,17.57
2017-04-29T13:59:37.016Z,17.68
2017-04-29T14:00:48.044Z,17.71
2017-04-29T14:01:59.085Z,17.71
2017-04-29T14:03:10.138Z,17.55
2017-04-29T14:04:21.380Z,17.55
2017-04-29T14:05:32.425Z,17.28
2017-04-29T14:06:43.511Z,17.27
2017-04-29T14:07:54.773Z,17.24
2017-04-29T14:09:05.826Z,17.1
2017-04-29T14:10:17.069Z,17.17
2017-04-29T14:11:28.119Z,17.07
2017-04-29T14:12:39.175Z,17.1
2017-04-29T14:13:50.220Z,17.06
2017-04-29T14:15:01.301Z,17.07
2017-04-29T14:16:12.334Z,16.92
2017-04-29T14:17:23.369Z,16.84
2017-04-29T14:18:34.405Z,16.84
2017-04-29T14:19:45.447Z,16.77
2017-04-29T14:20:56.487Z,16.7
2017-04-29T14:22:07.530Z,16.72
2017-04-29T14:23:18.567Z,16.65
2017-04-29T14:24:29.620Z,16.65
2017-04-29T14:25:41.060Z,16.63
2017-04-29T14:26:52.105Z,16.63
2017-04-29T14:28:03.597Z,16.7
2017-04-29T14:29:14.639Z,16.84
2017-04-29T14:30:26.086Z,16.77
2017-04-29T14:31:37.132Z,16.85
2017-04-29T14:32:48.379Z,16.87
2017-04-29T14:33:59.425Z,17.06
2017-04-29T14:35:10.669Z,17.06
2017-04-29T14:36:21.709Z,17.05
2017-04-29T14:37:32.745Z,16.95
2017-04-29T14:38:43.833Z,16.9
2017-04-29T14:39:54.887Z,16.9
2017-04-29T14:41:06.119Z,16.8
2017-04-29T14:42:17.149Z,16.7
2017-04-29T14:43:28.190Z,16.66
2017-04-29T14:44:39.237Z,16.58
2017-04-29T14:45:50.274Z,16.65
2017-04-29T14:47:01.314Z,16.39
2017-04-29T14:48:12.354Z,16.4
2017-04-29T14:49:23.394Z,16.45
2017-04-29T14:50:34.439Z,16.42
2017-04-29T14:51:45.479Z,16.37
2017-04-29T14:52:56.515Z,16.36
2017-04-29T14:54:07.613Z,16.42
2017-04-29T14:55:18.654Z,16.17
2017-04-29T14:56:29.682Z,16.1
2017-04-29T14:57:40.728Z,16.1
2017-04-29T14:58:51.782Z,16.07
2017-04-29T15:00:02.830Z,16.21
2017-04-29T15:01:13.880Z,16.34
2017-04-29T15:02:25.108Z,16.4
2017-04-29T15:03:36.142Z,16.3
2017-04-29T15:04:47.583Z,16.44
2017-04-29T15:05:58.676Z,16.52
2017-04-29T15:07:09.718Z,16.63
2017-04-29T15:08:20.948Z,16.44
2017-04-29T15:09:31.977Z,16.37
2017-04-29T15:10:43.004Z,16.27
2017-04-29T15:11:54.244Z,16.33
2017-04-29T15:13:05.268Z,16.3
2017-04-29T15:14:16.308Z,16.3
2017-04-29T15:15:27.409Z,16.32
2017-04-29T15:16:38.644Z,16.42
2017-04-29T15:17:49.676Z,16.29
2017-04-29T15:19:00.726Z,16.37
2017-04-29T15:20:11.763Z,16.32
2017-04-29T15:21:22.801Z,16.26
2017-04-29T15:22:33.838Z,16.44
2017-04-29T15:23:44.876Z,16.42
2017-04-29T15:24:55.921Z,16.59
2017-04-29T15:26:07.013Z,16.76
2017-04-29T15:27:18.250Z,16.69
2017-04-29T15:28:29.289Z,16.66
2017-04-29T15:29:40.340Z,16.84
2017-04-29T15:30:51.578Z,16.94
2017-04-29T15:32:02.617Z,17
2017-04-29T15:33:13.661Z,16.91